createdAt,value
2022-08-26T00:01:56.797Z,99.90
2022-08-26T00:04:25.779Z,99.90
2022-08-26T00:06:57.238Z,99.90
2022-08-26T00:09:25.383Z,99.90
2022-08-26T00:11:54.407Z,99.90
2022-08-26T00:14:27.017Z,99.90
2022-08-26T00:16:57.007Z,99.90
2022-08-26T00:19:25.172Z,99.90
2022-08-26T00:21:53.488Z,99.90
2022-08-26T00:24:21.880Z,99.90
2022-08-26T00:26:50.081Z,99.90
2022-08-26T00:29:19.531Z,99.90
2022-08-26T00:31:48.780Z,99.90
2022-08-26T00:34:19.294Z,99.90
2022-08-26T00:36:47.493Z,99.90
2022-08-26T00:39:16.807Z,99.90
2022-08-26T00:41:44.149Z,99.90
2022-08-26T00:44:12.251Z,99.90
2022-08-26T00:46:46.372Z,99.90
2022-08-26T00:49:24.658Z,99.90
2022-08-26T00:51:55.311Z,99.90
2022-08-26T00:54:27.404Z,99.90
2022-08-26T00:57:02.631Z,99.90
2022-08-26T00:59:33.263Z,99.90
2022-08-26T01:02:02.697Z,99.90
2022-08-26T01:04:33.608Z,99.90
2022-08-26T01:07:01.601Z,99.90
2022-08-26T01:09:30.967Z,99.90
2022-08-26T01:12:01.340Z,99.90
2022-08-26T01:14:32.850Z,99.90
2022-08-26T01:17:05.024Z,99.90
2022-08-26T01:19:40.626Z,99.90
2022-08-26T01:22:26.618Z,99.90
2022-08-26T01:24:56.930Z,99.90
2022-08-26T01:27:27.441Z,99.90
2022-08-26T01:30:01.854Z,99.90
2022-08-26T01:32:33.105Z,99.90
2022-08-26T01:35:01.570Z,99.90
2022-08-26T01:37:34.976Z,99.90
2022-08-26T01:40:04.314Z,99.90
2022-08-26T01:42:31.783Z,99.90
2022-08-26T01:45:07.213Z,99.90
2022-08-26T01:47:36.581Z,99.90
2022-08-26T01:50:11.159Z,99.90
2022-08-26T01:52:42.714Z,99.90
2022-08-26T01:55:13.668Z,99.90
2022-08-26T01:57:57.493Z,99.90
2022-08-26T02:00:26.668Z,99.90
2022-08-26T02:03:16.491Z,99.90
2022-08-26T02:06:00.010Z,99.90
2022-08-26T02:08:42.133Z,99.90
2022-08-26T02:11:09.859Z,99.90
2022-08-26T02:13:55.635Z,99.90
2022-08-26T02:16:26.200Z,99.90
2022-08-26T02:18:55.313Z,99.90
2022-08-26T02:21:24.941Z,99.90
2022-08-26T02:23:53.086Z,99.90
2022-08-26T02:26:27.098Z,99.90
2022-08-26T02:29:02.685Z,99.90
2022-08-26T02:31:30.133Z,99.90
2022-08-26T02:34:08.459Z,99.90
2022-08-26T02:36:38.183Z,99.90
2022-08-26T02:39:07.344Z,99.90
2022-08-26T02:41:35.042Z,99.90
2022-08-26T02:44:11.734Z,99.90
2022-08-26T02:46:39.852Z,99.90
2022-08-26T02:49:07.578Z,99.90
2022-08-26T02:51:34.843Z,99.90
2022-08-26T02:54:02.320Z,99.90
2022-08-26T02:56:29.639Z,99.90
2022-08-26T02:58:57.158Z,99.90
2022-08-26T03:01:32.492Z,99.90
2022-08-26T03:04:02.139Z,99.90
2022-08-26T03:06:29.958Z,99.90
2022-08-26T03:08:57.249Z,99.90
2022-08-26T03:11:29.629Z,99.90
2022-08-26T03:14:00.714Z,99.90
2022-08-26T03:16:37.748Z,99.90
2022-08-26T03:19:07.772Z,99.90
2022-08-26T03:21:36.965Z,99.90
2022-08-26T03:24:05.566Z,99.90
2022-08-26T03:26:32.858Z,99.90
2022-08-26T03:29:19.046Z,99.90
2022-08-26T03:31:46.989Z,99.90
2022-08-26T03:34:15.048Z,99.90
2022-08-26T03:36:42.530Z,99.90
2022-08-26T03:39:11.281Z,99.90
2022-08-26T03:41:38.867Z,99.90
2022-08-26T03:44:08.941Z,99.90
2022-08-26T03:46:37.280Z,99.90
2022-08-26T03:49:06.164Z,99.90
2022-08-26T03:51:34.928Z,99.90
2022-08-26T03:54:08.374Z,99.90
2022-08-26T03:56:36.760Z,99.90
2022-08-26T03:59:05.116Z,99.90
2022-08-26T04:01:35.386Z,99.90
2022-08-26T04:04:03.336Z,99.90
2022-08-26T04:06:43.092Z,99.90
2022-08-26T04:09:19.480Z,99.90
2022-08-26T04:11:50.545Z,99.90
2022-08-26T04:14:21.885Z,99.90
2022-08-26T04:16:50.158Z,99.90
2022-08-26T04:19:19.301Z,99.90
2022-08-26T04:21:49.117Z,99.90
2022-08-26T04:24:17.636Z,99.90
2022-08-26T04:26:45.283Z,99.90
2022-08-26T04:29:16.123Z,99.90
2022-08-26T04:31:44.229Z,99.90
2022-08-26T04:34:11.957Z,99.90
2022-08-26T04:36:41.979Z,99.90
2022-08-26T04:39:12.446Z,99.90
2022-08-26T04:41:40.144Z,99.90
2022-08-26T04:44:07.895Z,99.90
2022-08-26T04:46:35.798Z,99.90
2022-08-26T04:49:08.632Z,99.90
2022-08-26T04:51:36.676Z,99.90
2022-08-26T04:54:07.114Z,99.90
2022-08-26T04:56:37.621Z,99.90
2022-08-26T04:59:08.120Z,99.90
2022-08-26T05:01:46.715Z,99.90
2022-08-26T05:04:18.783Z,99.90
2022-08-26T05:06:47.799Z,99.90
2022-08-26T05:09:15.427Z,99.90
2022-08-26T05:11:42.947Z,99.90
2022-08-26T05:14:10.348Z,99.90
2022-08-26T05:16:40.432Z,99.90
2022-08-26T05:19:08.536Z,99.90
2022-08-26T05:21:36.698Z,99.90
2022-08-26T05:24:04.809Z,99.90
2022-08-26T05:26:32.961Z,99.90
2022-08-26T05:29:01.567Z,99.90
2022-08-26T05:31:31.975Z,99.90
2022-08-26T05:34:03.651Z,99.90
2022-08-26T05:36:34.872Z,99.90
2022-08-26T05:39:04.362Z,99.90
2022-08-26T05:41:36.631Z,99.90
2022-08-26T05:44:09.421Z,99.90
2022-08-26T05:46:37.952Z,99.90
2022-08-26T05:49:06.166Z,99.90
2022-08-26T05:51:46.602Z,99.90
2022-08-26T05:54:21.986Z,99.90
2022-08-26T05:56:52.645Z,99.90
2022-08-26T05:59:24.162Z,99.90
2022-08-26T06:01:52.965Z,99.90
2022-08-26T06:04:20.386Z,99.90
2022-08-26T06:06:47.934Z,99.90
2022-08-26T06:09:18.195Z,99.90
2022-08-26T06:11:45.632Z,99.90
2022-08-26T06:14:12.994Z,99.90
2022-08-26T06:16:44.442Z,99.90
2022-08-26T06:19:15.674Z,99.90
2022-08-26T06:21:46.572Z,99.90
2022-08-26T06:24:33.757Z,99.90
2022-08-26T06:27:04.374Z,99.90
2022-08-26T06:29:34.620Z,99.90
2022-08-26T06:32:03.955Z,99.90
2022-08-26T06:34:31.232Z,99.90
2022-08-26T06:37:02.787Z,99.90
2022-08-26T06:39:32.118Z,99.90
2022-08-26T06:42:00.421Z,99.90
2022-08-26T06:44:28.130Z,99.90
2022-08-26T06:46:55.702Z,99.90
2022-08-26T06:49:26.828Z,99.90
2022-08-26T06:51:58.515Z,99.90
2022-08-26T06:54:27.478Z,99.90
2022-08-26T06:56:57.040Z,99.90
2022-08-26T06:59:25.188Z,99.90
2022-08-26T07:01:53.312Z,99.90
2022-08-26T07:04:23.270Z,99.90
2022-08-26T07:06:53.580Z,99.90
2022-08-26T07:09:26.853Z,99.90
2022-08-26T07:11:56.458Z,99.90
2022-08-26T07:14:26.234Z,99.90
2022-08-26T07:16:53.894Z,99.90
2022-08-26T07:19:30.996Z,99.90
2022-08-26T07:22:04.842Z,99.90
2022-08-26T07:24:37.749Z,99.90
2022-08-26T07:27:08.801Z,99.90
2022-08-26T07:29:37.539Z,99.90
2022-08-26T07:32:05.428Z,99.90
2022-08-26T07:34:33.328Z,99.90
2022-08-26T07:37:01.388Z,99.90
2022-08-26T07:39:31.500Z,99.90
2022-08-26T07:42:01.468Z,99.90
2022-08-26T07:44:35.440Z,99.90
2022-08-26T07:47:02.817Z,99.90
2022-08-26T07:49:38.305Z,99.90
2022-08-26T07:52:06.726Z,99.90
2022-08-26T07:54:33.963Z,99.90
2022-08-26T07:57:01.725Z,99.90
2022-08-26T07:59:36.638Z,99.90
2022-08-26T08:02:03.941Z,99.90
2022-08-26T08:04:31.227Z,99.90
2022-08-26T08:06:58.600Z,99.90
2022-08-26T08:09:26.208Z,99.90
2022-08-26T08:11:54.808Z,99.90
2022-08-26T08:14:22.409Z,99.90
2022-08-26T08:16:51.208Z,99.90
2022-08-26T08:19:22.140Z,99.90
2022-08-26T08:21:49.368Z,99.90
2022-08-26T08:24:16.687Z,99.90
2022-08-26T08:26:44.028Z,99.90
2022-08-26T08:29:12.695Z,99.90
2022-08-26T08:31:57.962Z,99.90
2022-08-26T08:34:28.711Z,99.90
2022-08-26T08:36:57.485Z,99.90
2022-08-26T08:39:25.744Z,99.90
2022-08-26T08:42:13.917Z,99.90
2022-08-26T08:44:44.453Z,99.90
2022-08-26T08:47:35.592Z,99.90
2022-08-26T08:50:24.656Z,99.90
2022-08-26T08:53:17.587Z,99.90
2022-08-26T08:56:08.054Z,99.90
2022-08-26T08:58:50.048Z,99.90
2022-08-26T09:01:42.222Z,99.90
2022-08-26T09:04:27.718Z,99.90
2022-08-26T09:09:38.612Z,99.90
2022-08-26T09:12:12.825Z,99.90
2022-08-26T09:14:40.763Z,99.90
2022-08-26T09:17:39.048Z,99.90
2022-08-26T09:20:14.273Z,99.90
2022-08-26T09:22:44.201Z,99.90
2022-08-26T09:25:14.540Z,99.90
2022-08-26T09:27:46.322Z,99.90
2022-08-26T09:30:30.746Z,99.90
2022-08-26T09:33:11.087Z,99.90
2022-08-26T09:35:41.229Z,99.90
2022-08-26T09:38:26.582Z,99.90
2022-08-26T09:41:05.866Z,99.90
2022-08-26T09:43:34.597Z,99.90
2022-08-26T09:46:18.530Z,99.90
2022-08-26T09:48:45.867Z,99.90
2022-08-26T09:51:23.294Z,99.90
2022-08-26T09:53:57.006Z,99.90
2022-08-26T09:56:26.004Z,99.90
2022-08-26T09:58:56.810Z,99.90
2022-08-26T10:01:24.039Z,99.90
2022-08-26T10:03:51.986Z,99.90
2022-08-26T10:06:20.932Z,99.90
2022-08-26T10:08:59.998Z,99.90
2022-08-26T10:11:48.974Z,99.90
2022-08-26T10:14:31.874Z,99.90
2022-08-26T10:17:06.862Z,99.90
2022-08-26T10:19:58.775Z,99.90
2022-08-26T10:22:45.759Z,99.90
2022-08-26T10:25:17.535Z,99.90
2022-08-26T10:27:55.005Z,99.90
2022-08-26T10:30:27.720Z,99.90
2022-08-26T10:33:07.418Z,99.90
2022-08-26T10:35:40.268Z,99.90
2022-08-26T10:38:15.930Z,99.90
2022-08-26T10:41:24.345Z,99.90
2022-08-26T10:44:03.314Z,99.90
2022-08-26T10:46:54.522Z,99.90
2022-08-26T10:49:21.809Z,99.90
2022-08-26T10:52:12.273Z,99.90
2022-08-26T10:54:55.362Z,99.90
2022-08-26T10:57:50.541Z,99.90
2022-08-26T11:00:43.906Z,99.90
2022-08-26T11:03:42.586Z,99.90
2022-08-26T11:06:18.641Z,99.90
2022-08-26T11:08:57.308Z,99.90
2022-08-26T11:11:42.533Z,99.90
2022-08-26T11:14:29.048Z,99.90
2022-08-26T11:16:59.828Z,99.90
2022-08-26T11:19:59.006Z,99.90
2022-08-26T11:22:47.592Z,99.90
2022-08-26T11:25:20.806Z,99.90
2022-08-26T11:27:54.523Z,99.90
2022-08-26T11:30:24.087Z,99.90
2022-08-26T11:32:57.373Z,99.90
2022-08-26T11:35:24.696Z,99.90
2022-08-26T11:37:58.421Z,99.90
2022-08-26T11:40:29.207Z,99.90
2022-08-26T11:42:59.777Z,99.90
2022-08-26T11:45:39.755Z,99.90
2022-08-26T11:48:16.779Z,99.90
2022-08-26T11:51:05.926Z,99.90
2022-08-26T11:53:37.308Z,99.90
2022-08-26T11:56:10.553Z,99.90
2022-08-26T11:58:44.438Z,99.90
2022-08-26T12:01:21.550Z,99.90
2022-08-26T12:03:52.430Z,99.90
2022-08-26T12:06:30.890Z,99.90
2022-08-26T12:09:05.526Z,99.40
2022-08-26T12:11:35.833Z,97.90
2022-08-26T12:14:07.561Z,96.90
2022-08-26T12:16:40.271Z,96.10
2022-08-26T12:19:34.255Z,95.30
2022-08-26T12:22:25.556Z,95.40
2022-08-26T12:24:55.551Z,96.70
2022-08-26T12:27:31.907Z,96.80
2022-08-26T12:30:13.872Z,94.90
2022-08-26T12:32:57.593Z,92.30
2022-08-26T12:35:28.967Z,91.10
2022-08-26T12:37:57.838Z,91.00
2022-08-26T12:40:30.936Z,90.10
2022-08-26T12:43:01.978Z,91.70
2022-08-26T12:45:37.121Z,92.10
2022-08-26T12:48:13.726Z,91.90
2022-08-26T12:50:48.055Z,90.90
2022-08-26T12:53:24.057Z,90.80
2022-08-26T12:56:00.478Z,90.80
2022-08-26T12:58:30.148Z,91.60
2022-08-26T13:01:04.616Z,92.10
2022-08-26T13:03:34.823Z,92.50
2022-08-26T13:06:17.222Z,92.90
2022-08-26T13:08:51.542Z,93.50
2022-08-26T13:11:21.093Z,94.20
2022-08-26T13:13:53.653Z,94.70
2022-08-26T13:16:23.267Z,94.60
2022-08-26T13:18:53.476Z,94.20
2022-08-26T13:21:24.182Z,93.30
2022-08-26T13:23:52.339Z,92.00
2022-08-26T13:26:20.298Z,90.70
2022-08-26T13:28:53.281Z,89.50
2022-08-26T13:31:31.304Z,87.10
2022-08-26T13:33:58.859Z,86.50
2022-08-26T13:36:27.045Z,86.60
2022-08-26T13:38:54.274Z,87.00
2022-08-26T13:41:29.115Z,88.40
2022-08-26T13:43:58.894Z,90.30
2022-08-26T13:46:28.523Z,91.40
2022-08-26T13:48:57.437Z,92.70
2022-08-26T13:51:27.130Z,94.20
2022-08-26T13:53:55.074Z,95.70
2022-08-26T13:56:23.064Z,97.10
2022-08-26T13:58:50.304Z,98.40
2022-08-26T14:01:17.662Z,99.80
2022-08-26T14:03:46.221Z,99.90
2022-08-26T14:06:13.973Z,99.90
2022-08-26T14:08:42.267Z,99.90
2022-08-26T14:11:10.028Z,99.90
2022-08-26T14:13:37.298Z,99.90
2022-08-26T14:16:13.382Z,99.90
2022-08-26T14:18:44.327Z,99.90
2022-08-26T14:21:14.269Z,99.90
2022-08-26T14:23:41.750Z,99.90
2022-08-26T14:26:14.329Z,99.90
2022-08-26T14:28:56.584Z,99.90
2022-08-26T14:31:24.301Z,99.90
2022-08-26T14:33:51.659Z,99.90
2022-08-26T14:36:34.119Z,99.90
2022-08-26T14:39:11.058Z,99.90
2022-08-26T14:41:55.180Z,99.90
2022-08-26T14:44:27.121Z,99.90
2022-08-26T14:46:54.791Z,99.90
2022-08-26T14:49:23.610Z,99.90
2022-08-26T14:51:50.925Z,99.90
2022-08-26T14:54:19.466Z,99.90
2022-08-26T14:56:56.024Z,99.90
2022-08-26T14:59:33.086Z,99.90
2022-08-26T15:02:01.015Z,99.90
2022-08-26T15:04:28.995Z,99.90
2022-08-26T15:06:59.050Z,99.90
2022-08-26T15:09:28.080Z,99.90
2022-08-26T15:11:55.621Z,99.90
2022-08-26T15:14:23.973Z,99.90
2022-08-26T15:16:54.048Z,99.90
2022-08-26T15:19:22.710Z,99.90
2022-08-26T15:21:51.075Z,99.90
2022-08-26T15:24:21.183Z,99.90
2022-08-26T15:26:49.605Z,99.90
2022-08-26T15:29:17.436Z,99.90
2022-08-26T15:31:44.736Z,99.90
2022-08-26T15:34:16.434Z,99.90
2022-08-26T15:36:46.452Z,99.90
2022-08-26T15:39:15.756Z,99.90
2022-08-26T15:41:43.452Z,99.90
2022-08-26T15:44:11.690Z,99.90
2022-08-26T15:46:39.922Z,99.90
2022-08-26T15:49:07.605Z,99.90
2022-08-26T15:51:45.533Z,99.90
2022-08-26T15:54:14.509Z,99.90
2022-08-26T15:56:43.440Z,99.90
2022-08-26T15:59:11.851Z,99.90
2022-08-26T16:01:40.047Z,99.90
2022-08-26T16:04:07.676Z,99.90
2022-08-26T16:06:37.417Z,99.90
2022-08-26T16:09:06.380Z,99.90
2022-08-26T16:11:36.059Z,99.90
2022-08-26T16:14:04.777Z,99.90
2022-08-26T16:16:32.496Z,99.90
2022-08-26T16:19:02.270Z,99.90
2022-08-26T16:21:32.923Z,99.90
2022-08-26T16:24:00.192Z,99.90
2022-08-26T16:26:32.506Z,99.90
2022-08-26T16:29:02.084Z,99.90
2022-08-26T16:31:29.525Z,99.90
2022-08-26T16:33:56.879Z,99.90
2022-08-26T16:36:24.393Z,99.90
2022-08-26T16:38:55.740Z,99.90
2022-08-26T16:41:25.123Z,99.90
2022-08-26T16:43:53.122Z,99.90
2022-08-26T16:46:22.305Z,99.90
2022-08-26T16:48:50.116Z,99.90
2022-08-26T16:51:19.649Z,99.90
2022-08-26T16:53:47.591Z,99.90
2022-08-26T16:56:16.701Z,99.90
2022-08-26T16:58:44.317Z,99.90
2022-08-26T17:01:11.600Z,99.90
2022-08-26T17:03:38.942Z,99.90
2022-08-26T17:06:06.486Z,99.90
2022-08-26T17:08:33.855Z,99.90
2022-08-26T17:11:01.535Z,99.90
2022-08-26T17:13:35.904Z,99.90
2022-08-26T17:16:06.084Z,99.90
2022-08-26T17:18:34.226Z,99.90
2022-08-26T17:21:04.397Z,99.90
2022-08-26T17:23:31.833Z,99.90
2022-08-26T17:25:59.383Z,99.90
2022-08-26T17:28:26.790Z,99.90
2022-08-26T17:30:57.335Z,99.90
2022-08-26T17:33:25.407Z,99.90
2022-08-26T17:35:53.351Z,99.90
2022-08-26T17:38:21.353Z,99.90
2022-08-26T17:40:52.084Z,99.90
2022-08-26T17:43:19.784Z,99.90
2022-08-26T17:45:47.189Z,99.90
2022-08-26T17:48:14.506Z,99.90
2022-08-26T17:50:42.842Z,99.90
2022-08-26T17:53:12.708Z,99.90
2022-08-26T17:55:47.099Z,99.90
2022-08-26T17:58:17.784Z,99.90
2022-08-26T18:00:48.006Z,99.90
2022-08-26T18:03:16.384Z,99.90
2022-08-26T18:05:48.226Z,99.90
2022-08-26T18:08:15.739Z,99.90
2022-08-26T18:10:44.090Z,99.90
2022-08-26T18:13:11.989Z,99.90
2022-08-26T18:15:40.340Z,99.90
2022-08-26T18:18:07.921Z,99.90
2022-08-26T18:20:37.287Z,99.90
2022-08-26T18:23:05.080Z,99.90
2022-08-26T18:25:32.313Z,99.90
2022-08-26T18:27:59.941Z,99.90
2022-08-26T18:30:27.278Z,99.90
2022-08-26T18:32:54.512Z,99.90
2022-08-26T18:35:21.735Z,99.90
2022-08-26T18:37:49.009Z,99.90
2022-08-26T18:40:17.606Z,99.90
2022-08-26T18:42:45.174Z,99.90
2022-08-26T18:45:17.732Z,99.90
2022-08-26T18:47:45.043Z,99.90
2022-08-26T18:50:12.604Z,99.90
2022-08-26T18:52:40.378Z,99.90
2022-08-26T18:55:08.434Z,99.90
2022-08-26T18:57:35.719Z,99.90
2022-08-26T19:00:06.018Z,99.90
2022-08-26T19:02:34.485Z,99.90
2022-08-26T19:05:02.013Z,99.90
2022-08-26T19:07:29.345Z,99.90
2022-08-26T19:09:56.586Z,99.90
2022-08-26T19:12:24.023Z,99.90
2022-08-26T19:14:54.212Z,99.90
2022-08-26T19:17:22.661Z,99.90
2022-08-26T19:19:50.022Z,99.90
2022-08-26T19:22:17.245Z,99.90
2022-08-26T19:24:44.517Z,99.90
2022-08-26T19:27:14.916Z,99.90
2022-08-26T19:29:42.383Z,99.90
2022-08-26T19:32:09.753Z,99.90
2022-08-26T19:34:37.146Z,99.90
2022-08-26T19:37:04.667Z,99.90
2022-08-26T19:39:31.953Z,99.90
2022-08-26T19:42:00.441Z,99.90
2022-08-26T19:44:46.471Z,99.90
2022-08-26T19:47:14.164Z,99.90
2022-08-26T19:49:41.421Z,99.90
2022-08-26T19:52:09.086Z,99.90
2022-08-26T19:54:37.141Z,99.90
2022-08-26T19:57:05.410Z,99.90
2022-08-26T19:59:33.252Z,99.90
2022-08-26T20:02:01.610Z,99.90
2022-08-26T20:04:30.997Z,99.90
2022-08-26T20:07:00.710Z,99.90
2022-08-26T20:09:29.849Z,99.90
2022-08-26T20:11:57.222Z,99.90
2022-08-26T20:14:26.256Z,99.90
2022-08-26T20:16:53.984Z,99.90
2022-08-26T20:19:40.367Z,99.90
2022-08-26T20:22:08.217Z,99.90
2022-08-26T20:24:36.008Z,99.90
2022-08-26T20:27:07.693Z,99.90
2022-08-26T20:29:35.747Z,99.90
2022-08-26T20:32:06.100Z,99.90
2022-08-26T20:34:34.276Z,99.90
2022-08-26T20:37:01.790Z,99.90
2022-08-26T20:39:29.916Z,99.90
2022-08-26T20:41:58.220Z,99.90
2022-08-26T20:44:26.462Z,99.90
2022-08-26T20:46:53.761Z,99.90
2022-08-26T20:49:21.197Z,99.90
2022-08-26T20:51:52.543Z,99.90
2022-08-26T20:54:25.108Z,99.90
2022-08-26T20:56:56.716Z,99.90
2022-08-26T20:59:24.626Z,99.90
2022-08-26T21:01:51.995Z,99.90
2022-08-26T21:04:22.114Z,99.90
2022-08-26T21:06:52.939Z,99.90
2022-08-26T21:09:23.318Z,99.90
2022-08-26T21:11:51.370Z,99.90
2022-08-26T21:14:20.615Z,99.90
2022-08-26T21:16:48.019Z,99.90
2022-08-26T21:19:18.232Z,99.90
2022-08-26T21:21:47.603Z,99.90
2022-08-26T21:24:15.561Z,99.90
2022-08-26T21:26:43.100Z,99.90
2022-08-26T21:29:10.395Z,99.90
2022-08-26T21:31:43.573Z,99.90
2022-08-26T21:34:13.464Z,99.90
2022-08-26T21:36:40.749Z,99.90
2022-08-26T21:39:11.716Z,99.90
2022-08-26T21:41:40.661Z,99.90
2022-08-26T21:44:08.906Z,99.90
2022-08-26T21:46:37.455Z,99.90
2022-08-26T21:49:07.625Z,99.90
2022-08-26T21:51:37.847Z,99.90
2022-08-26T21:54:10.773Z,99.90
2022-08-26T21:56:42.216Z,99.90
2022-08-26T21:59:09.888Z,99.90
2022-08-26T22:01:38.100Z,99.90
2022-08-26T22:04:07.658Z,99.90
2022-08-26T22:06:39.867Z,99.90
2022-08-26T22:09:07.117Z,99.90
2022-08-26T22:11:34.435Z,99.90
2022-08-26T22:14:01.809Z,99.90
2022-08-26T22:16:29.106Z,99.90
2022-08-26T22:18:56.649Z,99.90
2022-08-26T22:21:27.040Z,99.90
2022-08-26T22:23:57.933Z,99.90
2022-08-26T22:26:29.398Z,99.90
2022-08-26T22:28:58.963Z,99.90
2022-08-26T22:31:37.875Z,99.90
2022-08-26T22:34:08.820Z,99.90
2022-08-26T22:36:43.050Z,99.90
2022-08-26T22:39:17.737Z,99.90
2022-08-26T22:41:48.852Z,99.90
2022-08-26T22:44:17.558Z,99.90
2022-08-26T22:46:45.893Z,99.90
2022-08-26T22:49:16.584Z,99.90
2022-08-26T22:51:47.452Z,99.90
2022-08-26T22:54:15.823Z,99.90
2022-08-26T22:56:44.836Z,99.90
2022-08-26T22:59:13.184Z,99.90
2022-08-26T23:01:43.075Z,99.90
2022-08-26T23:04:11.185Z,99.90
2022-08-26T23:06:41.341Z,99.90
2022-08-26T23:09:09.180Z,99.90
2022-08-26T23:11:39.920Z,99.90
2022-08-26T23:14:09.761Z,99.90
2022-08-26T23:16:40.116Z,99.90
2022-08-26T23:19:09.811Z,99.90
2022-08-26T23:21:37.879Z,99.90
2022-08-26T23:24:06.298Z,99.90
2022-08-26T23:26:34.924Z,99.90
2022-08-26T23:29:05.092Z,99.90
2022-08-26T23:31:32.814Z,99.90
2022-08-26T23:34:18.762Z,99.90
2022-08-26T23:36:46.982Z,99.90
2022-08-26T23:39:14.854Z,99.90
2022-08-26T23:41:42.789Z,99.90
2022-08-26T23:44:10.137Z,99.90
2022-08-26T23:46:37.402Z,99.90
2022-08-26T23:49:05.079Z,99.90
2022-08-26T23:51:50.943Z,99.90
2022-08-26T23:54:19.606Z,99.90
2022-08-26T23:56:46.915Z,99.90
2022-08-26T23:59:14.337Z,99.90
